Portada
METAR-TAF:

METAR-TAF

Aeroports :

Clintonville, Wisconsin, Estats Units d'Amèrica

latitud: 44-36-50N, longitud: 088-43-53W, altitud: 251 m

Observació

L'informe es va fer fa 11 minuts, a les 02:15 UTC
Vent calma
Temperatura 20°C
Humitat 94%
Pressió 1013 hPa
Visibilitat: 16.1 km
Cel clar

METAR: KCLI 280215Z AUTO 00000KT 10SM CLR 20/19 A2991 RMK AO2 T02030185

Hora: 21:26 (02:26 UTC)


TAF: manca

Observacions i pronòstics meteorològics de més de 4000 aeroports (METAR i TAF).

Les estacions disponibles són els punts grocs i vermells al mapa.

Posi el ratolí al punt desitjat per veure el nom de l'estació.

Feu clic per veure les observacions i els pronòstics meteorològics.

Per canviar el mapa: feu clic els botons verds amb una creu de color negre per apropar; al botó verd amb un guió per allunyar la imatge; o en les fletxes verdes per a mapes adjacents.


METAR-TAF: